createdAt,value
2018-03-28T00:00:28.935Z,995.52
2018-03-28T00:01:09.334Z,995.45
2018-03-28T00:01:49.749Z,995.48
2018-03-28T00:02:30.161Z,995.44
2018-03-28T00:03:10.548Z,995.45
2018-03-28T00:03:50.926Z,995.47
2018-03-28T00:04:31.312Z,995.44
2018-03-28T00:05:11.738Z,995.46
2018-03-28T00:05:52.131Z,995.46
2018-03-28T00:06:32.530Z,995.5
2018-03-28T00:08:30.023Z,995.49
2018-03-28T00:09:10.335Z,995.5
2018-03-28T00:09:50.748Z,995.48
2018-03-28T00:10:31.148Z,995.48
2018-03-28T00:11:11.525Z,995.48
2018-03-28T00:11:51.941Z,995.47
2018-03-28T00:12:32.342Z,995.49
2018-03-28T00:13:12.734Z,995.48
2018-03-28T00:13:53.144Z,995.5
2018-03-28T00:14:33.513Z,995.5
2018-03-28T00:15:13.929Z,995.51
2018-03-28T00:15:54.331Z,995.49
2018-03-28T00:16:34.737Z,995.51
2018-03-28T00:17:15.108Z,995.55
2018-03-28T00:17:55.492Z,995.55
2018-03-28T00:18:35.888Z,995.55
2018-03-28T00:19:16.298Z,995.55
2018-03-28T00:19:56.647Z,995.55
2018-03-28T00:22:14.239Z,995.56
2018-03-28T00:22:54.646Z,995.53
2018-03-28T00:23:35.048Z,995.55
2018-03-28T00:24:15.465Z,995.56
2018-03-28T00:24:55.866Z,995.52
2018-03-28T00:25:36.270Z,995.52
2018-03-28T00:26:16.658Z,995.53
2018-03-28T00:26:57.065Z,995.53
2018-03-28T00:27:37.532Z,995.53
2018-03-28T00:28:17.864Z,995.51
2018-03-28T00:28:58.259Z,995.47
2018-03-28T00:29:38.692Z,995.46
2018-03-28T00:30:19.077Z,995.47
2018-03-28T00:30:59.468Z,995.47
2018-03-28T00:31:39.866Z,995.48
2018-03-28T00:32:20.275Z,995.47
2018-03-28T00:33:00.680Z,995.47
2018-03-28T00:33:41.091Z,995.49
2018-03-28T00:34:21.447Z,995.46
2018-03-28T00:35:01.832Z,995.44
2018-03-28T00:35:42.218Z,995.48
2018-03-28T00:36:22.641Z,995.46
2018-03-28T00:37:03.022Z,995.43
2018-03-28T00:37:43.439Z,995.4
2018-03-28T00:38:23.870Z,995.44
2018-03-28T00:39:04.263Z,995.38
2018-03-28T00:39:44.652Z,995.39
2018-03-28T00:40:25.099Z,995.4
2018-03-28T00:42:22.486Z,995.34
2018-03-28T00:43:02.855Z,995.35
2018-03-28T00:43:43.258Z,995.32
2018-03-28T00:44:23.652Z,995.33
2018-03-28T00:45:04.057Z,995.3
2018-03-28T00:45:44.461Z,995.28
2018-03-28T00:46:24.833Z,995.3
2018-03-28T00:47:05.244Z,995.27
2018-03-28T00:47:45.637Z,995.28
2018-03-28T00:48:26.055Z,995.28
2018-03-28T00:49:06.428Z,995.26
2018-03-28T00:49:46.821Z,995.25
2018-03-28T00:50:27.214Z,995.27
2018-03-28T00:51:07.651Z,995.28
2018-03-28T00:51:48.028Z,995.25
2018-03-28T00:52:28.445Z,995.23
2018-03-28T00:53:08.840Z,995.23
2018-03-28T00:53:49.208Z,995.22
2018-03-28T00:54:29.616Z,995.22
2018-03-28T00:55:10.007Z,995.23
2018-03-28T00:55:50.391Z,995.21
2018-03-28T00:56:30.800Z,995.23
2018-03-28T00:57:11.189Z,995.24
2018-03-28T00:57:51.581Z,995.28
2018-03-28T01:00:09.150Z,995.22
2018-03-28T01:00:49.566Z,995.22
2018-03-28T01:01:29.988Z,995.24
2018-03-28T01:02:10.415Z,995.22
2018-03-28T01:02:50.789Z,995.25
2018-03-28T01:03:31.202Z,995.21
2018-03-28T01:04:11.626Z,995.22
2018-03-28T01:04:52.043Z,995.19
2018-03-28T01:05:32.434Z,995.24
2018-03-28T01:06:12.834Z,995.17
2018-03-28T01:06:53.222Z,995.2
2018-03-28T01:07:33.620Z,995.18
2018-03-28T01:08:14.038Z,995.17
2018-03-28T01:08:54.435Z,995.16
2018-03-28T01:09:34.822Z,995.18
2018-03-28T01:10:15.230Z,995.16
2018-03-28T01:10:55.599Z,995.14
2018-03-28T01:11:36.023Z,995.13
2018-03-28T01:12:16.445Z,995.16
2018-03-28T01:12:56.822Z,995.13
2018-03-28T01:13:37.211Z,995.18
2018-03-28T01:14:17.589Z,995.14
2018-03-28T01:14:58.009Z,995.13
2018-03-28T01:15:38.398Z,995.15
2018-03-28T01:16:18.814Z,995.17
2018-03-28T01:16:59.229Z,995.17
2018-03-28T01:17:39.628Z,995.11
2018-03-28T01:18:20.009Z,995.18
2018-03-28T01:19:00.413Z,995.13
2018-03-28T01:19:40.827Z,995.13
2018-03-28T01:20:21.231Z,995.11
2018-03-28T01:21:01.624Z,995.09
2018-03-28T01:21:42.023Z,995.06
2018-03-28T01:22:22.444Z,995
2018-03-28T01:23:02.857Z,995.06
2018-03-28T01:23:43.229Z,995.12
2018-03-28T01:24:23.633Z,995.08
2018-03-28T01:25:04.053Z,995.12
2018-03-28T01:25:44.506Z,995.06
2018-03-28T01:26:24.887Z,995.1
2018-03-28T01:27:05.313Z,995.07
2018-03-28T01:27:45.734Z,995.06
2018-03-28T01:28:26.128Z,995.05
2018-03-28T01:29:06.529Z,995.1
2018-03-28T01:29:46.958Z,995.14
2018-03-28T01:32:14.648Z,995.11
2018-03-28T01:32:54.998Z,995.15
2018-03-28T01:33:35.434Z,995.15
2018-03-28T01:34:15.820Z,995.15
2018-03-28T01:34:56.240Z,995.14
2018-03-28T01:35:36.638Z,995.17
2018-03-28T01:36:17.069Z,995.14
2018-03-28T01:36:57.464Z,995.2
2018-03-28T01:37:37.866Z,995.14
2018-03-28T01:38:18.278Z,995.12
2018-03-28T01:38:58.679Z,995.11
2018-03-28T01:39:39.074Z,995.14
2018-03-28T01:40:19.445Z,995.16
2018-03-28T01:40:59.839Z,995.18
2018-03-28T01:41:40.300Z,995.15
2018-03-28T01:42:20.670Z,995.14
2018-03-28T01:43:01.057Z,995.19
2018-03-28T01:43:41.436Z,995.17
2018-03-28T01:44:21.839Z,995.17
2018-03-28T01:45:02.230Z,995.17
2018-03-28T01:45:42.650Z,995.19
2018-03-28T01:46:23.087Z,995.19
2018-03-28T01:47:03.416Z,995.19
2018-03-28T01:47:43.764Z,995.18
2018-03-28T01:48:24.169Z,995.17
2018-03-28T01:49:04.542Z,995.13
2018-03-28T01:49:44.989Z,995.16
2018-03-28T01:50:25.349Z,995.15
2018-03-28T01:51:05.791Z,995.17
2018-03-28T01:51:46.163Z,995.19
2018-03-28T01:52:26.579Z,995.15
2018-03-28T01:53:06.995Z,995.12
2018-03-28T01:53:47.420Z,995.16
2018-03-28T01:54:27.823Z,995.14
2018-03-28T01:55:08.152Z,995.14
2018-03-28T01:55:48.531Z,995.14
2018-03-28T01:56:28.934Z,995.17
2018-03-28T01:57:09.348Z,995.17
2018-03-28T01:57:49.746Z,995.19
2018-03-28T01:58:30.140Z,995.15
2018-03-28T01:59:10.556Z,995.16
2018-03-28T01:59:50.956Z,995.16
2018-03-28T02:00:31.378Z,995.16
2018-03-28T02:01:11.761Z,995.19
2018-03-28T02:01:52.176Z,995.19
2018-03-28T02:02:32.542Z,995.22
2018-03-28T02:03:12.969Z,995.17
2018-03-28T02:03:53.401Z,995.19
2018-03-28T02:04:33.807Z,995.18
2018-03-28T02:05:14.146Z,995.22
2018-03-28T02:05:54.552Z,995.2
2018-03-28T02:06:35.004Z,995.17
2018-03-28T02:07:15.392Z,995.19
2018-03-28T02:07:55.786Z,995.23
2018-03-28T02:08:36.195Z,995.21
2018-03-28T02:09:16.595Z,995.26
2018-03-28T02:09:57.076Z,995.27
2018-03-28T02:10:37.425Z,995.21
2018-03-28T02:11:17.833Z,995.24
2018-03-28T02:11:58.257Z,995.23
2018-03-28T02:12:38.656Z,995.23
2018-03-28T02:13:19.076Z,995.22
2018-03-28T02:13:59.486Z,995.22
2018-03-28T02:14:39.866Z,995.2
2018-03-28T02:15:20.335Z,995.23
2018-03-28T02:16:00.672Z,995.23
2018-03-28T02:16:41.104Z,995.26
2018-03-28T02:17:21.451Z,995.22
2018-03-28T02:18:01.849Z,995.21
2018-03-28T02:18:42.221Z,995.24
2018-03-28T02:19:22.609Z,995.3
2018-03-28T02:20:03.069Z,995.26
2018-03-28T02:20:43.407Z,995.3
2018-03-28T02:21:23.852Z,995.28
2018-03-28T02:22:04.234Z,995.31
2018-03-28T02:22:44.637Z,995.33
2018-03-28T02:23:25.034Z,995.33
2018-03-28T02:24:05.461Z,995.33
2018-03-28T02:24:45.826Z,995.3
2018-03-28T02:25:26.228Z,995.33
2018-03-28T02:26:06.670Z,995.34
2018-03-28T02:26:47.011Z,995.35
2018-03-28T02:27:27.434Z,995.34
2018-03-28T02:28:07.832Z,995.34
2018-03-28T02:28:48.246Z,995.35
2018-03-28T02:29:28.639Z,995.31
2018-03-28T02:30:09.055Z,995.34
2018-03-28T02:30:49.414Z,995.36
2018-03-28T02:31:29.828Z,995.33
2018-03-28T02:32:10.220Z,995.33
2018-03-28T02:32:50.627Z,995.32
2018-03-28T02:33:31.038Z,995.25
2018-03-28T02:34:11.441Z,995.27
2018-03-28T02:34:51.815Z,995.26
2018-03-28T02:35:32.262Z,995.3
2018-03-28T02:36:12.597Z,995.3
2018-03-28T02:36:53.009Z,995.34
2018-03-28T02:37:33.413Z,995.36
2018-03-28T02:38:13.835Z,995.38
2018-03-28T02:38:54.241Z,995.31
2018-03-28T02:39:34.643Z,995.3
2018-03-28T02:40:15.022Z,995.31
2018-03-28T02:40:55.418Z,995.31
2018-03-28T02:41:35.881Z,995.24
2018-03-28T02:42:16.244Z,995.26
2018-03-28T02:42:56.571Z,995.28
2018-03-28T02:43:36.984Z,995.25
2018-03-28T02:44:17.379Z,995.25
2018-03-28T02:44:57.772Z,995.29
2018-03-28T02:45:38.149Z,995.28
2018-03-28T02:46:18.583Z,995.25
2018-03-28T02:46:58.940Z,995.29
2018-03-28T02:47:39.348Z,995.32
2018-03-28T02:48:19.773Z,995.34
2018-03-28T02:49:00.173Z,995.34
2018-03-28T02:49:40.636Z,995.34
2018-03-28T02:50:21.017Z,995.35
2018-03-28T02:51:01.376Z,995.39
2018-03-28T02:51:41.745Z,995.42
2018-03-28T02:52:22.138Z,995.34
2018-03-28T02:53:02.522Z,995.38
2018-03-28T02:53:42.928Z,995.38
2018-03-28T02:54:23.376Z,995.36
2018-03-28T02:55:03.779Z,995.35
2018-03-28T02:55:44.174Z,995.38
2018-03-28T02:56:24.592Z,995.38
2018-03-28T02:57:04.972Z,995.39
2018-03-28T02:57:45.421Z,995.35
2018-03-28T02:58:25.769Z,995.4
2018-03-28T02:59:06.195Z,995.36
2018-03-28T02:59:46.595Z,995.39
2018-03-28T03:00:26.995Z,995.38
2018-03-28T03:01:07.398Z,995.4
2018-03-28T03:01:47.838Z,995.38
2018-03-28T03:02:28.192Z,995.35
2018-03-28T03:03:08.614Z,995.36
2018-03-28T03:03:49.008Z,995.32
2018-03-28T03:04:29.418Z,995.34
2018-03-28T03:05:09.789Z,995.34
2018-03-28T03:05:50.196Z,995.29
2018-03-28T03:06:30.598Z,995.34
2018-03-28T03:07:11.496Z,995.31
2018-03-28T03:09:23.910Z,995.32
2018-03-28T03:10:04.302Z,995.32
2018-03-28T03:10:44.758Z,995.33
2018-03-28T03:11:27.047Z,995.37
2018-03-28T03:12:07.433Z,995.34
2018-03-28T03:12:47.806Z,995.33
2018-03-28T03:13:28.795Z,995.35
2018-03-28T03:14:09.184Z,995.33
2018-03-28T03:14:49.637Z,995.28
2018-03-28T03:15:30.102Z,995.26
2018-03-28T03:16:10.452Z,995.28
2018-03-28T03:16:50.853Z,995.28
2018-03-28T03:17:31.245Z,995.29
2018-03-28T03:18:11.655Z,995.27
2018-03-28T03:18:52.068Z,995.29
2018-03-28T03:19:32.492Z,995.28
2018-03-28T03:20:12.874Z,995.32
2018-03-28T03:20:53.311Z,995.3
2018-03-28T03:21:33.730Z,995.29
2018-03-28T03:22:14.144Z,995.29
2018-03-28T03:22:54.513Z,995.31
2018-03-28T03:23:34.947Z,995.24
2018-03-28T03:24:15.309Z,995.23
2018-03-28T03:24:55.636Z,995.25
2018-03-28T03:25:36.233Z,995.25
2018-03-28T03:26:16.638Z,995.25
2018-03-28T03:26:57.061Z,995.24
2018-03-28T03:27:37.492Z,995.28
2018-03-28T03:28:17.882Z,995.25
2018-03-28T03:28:58.336Z,995.31
2018-03-28T03:29:38.713Z,995.33
2018-03-28T03:30:19.116Z,995.32
2018-03-28T03:30:59.961Z,995.31
2018-03-28T03:31:40.343Z,995.34
2018-03-28T03:32:20.742Z,995.38
2018-03-28T03:33:02.951Z,995.37
2018-03-28T03:33:43.392Z,995.39
2018-03-28T03:34:23.758Z,995.4
2018-03-28T03:35:04.128Z,995.39
2018-03-28T03:35:44.519Z,995.42
2018-03-28T03:36:24.916Z,995.37
2018-03-28T03:37:05.501Z,995.39
2018-03-28T03:37:45.771Z,995.39
2018-03-28T03:38:26.133Z,995.39
2018-03-28T03:39:06.539Z,995.38
2018-03-28T03:39:47.116Z,995.37
2018-03-28T03:41:45.032Z,995.35
2018-03-28T03:42:25.606Z,995.4
2018-03-28T03:43:06.089Z,995.4
2018-03-28T03:43:46.864Z,995.38
2018-03-28T03:44:27.201Z,995.37
2018-03-28T03:45:07.678Z,995.38
2018-03-28T03:45:48.019Z,995.39
2018-03-28T03:46:28.459Z,995.35
2018-03-28T03:47:08.925Z,995.33
2018-03-28T03:47:49.462Z,995.36
2018-03-28T03:48:29.710Z,995.33
2018-03-28T03:49:12.655Z,995.3
2018-03-28T03:49:52.995Z,995.33
2018-03-28T03:50:33.376Z,995.37
2018-03-28T03:51:13.874Z,995.32
2018-03-28T03:51:54.407Z,995.29
2018-03-28T03:52:34.694Z,995.32
2018-03-28T03:53:15.246Z,995.3
2018-03-28T03:53:55.811Z,995.39
2018-03-28T03:54:36.181Z,995.33
2018-03-28T03:55:16.628Z,995.34
2018-03-28T03:55:56.998Z,995.37
2018-03-28T03:56:37.840Z,995.32
2018-03-28T03:57:18.670Z,995.38
2018-03-28T03:57:58.324Z,995.34
2018-03-28T03:58:38.735Z,995.36
2018-03-28T03:59:19.094Z,995.36
2018-03-28T03:59:59.544Z,995.37
2018-03-28T04:00:39.955Z,995.38
2018-03-28T04:01:20.772Z,995.39
2018-03-28T04:02:01.465Z,995.4
2018-03-28T04:02:41.855Z,995.37
2018-03-28T04:04:39.712Z,995.39
2018-03-28T04:05:19.052Z,995.43
2018-03-28T04:47:33.800Z,995.6
2018-03-28T04:48:13.759Z,995.61
2018-03-28T04:48:54.154Z,995.55
2018-03-28T04:49:34.777Z,995.54
2018-03-28T04:50:14.994Z,995.55
2018-03-28T04:50:55.374Z,995.55
2018-03-28T04:51:35.754Z,995.55
2018-03-28T04:52:16.174Z,995.52
2018-03-28T04:52:56.602Z,995.54
2018-03-28T04:53:37.026Z,995.54
2018-03-28T04:54:17.490Z,995.55
2018-03-28T04:54:57.933Z,995.54
2018-03-28T04:55:38.318Z,995.56
2018-03-28T04:56:18.744Z,995.5
2018-03-28T04:56:59.106Z,995.53
2018-03-28T04:57:39.594Z,995.54
2018-03-28T04:58:20.049Z,995.51
2018-03-28T04:59:00.441Z,995.5
2018-03-28T04:59:40.870Z,995.55
2018-03-28T05:00:21.215Z,995.52
2018-03-28T05:01:01.610Z,995.57
2018-03-28T05:01:42.028Z,995.53
2018-03-28T05:02:22.399Z,995.53
2018-03-28T05:03:02.780Z,995.55
2018-03-28T05:03:43.233Z,995.55
2018-03-28T05:04:23.595Z,995.55
2018-03-28T05:05:03.960Z,995.57
2018-03-28T05:05:44.409Z,995.61
2018-03-28T05:06:24.825Z,995.59
2018-03-28T05:07:05.242Z,995.59
2018-03-28T05:07:45.660Z,995.59
2018-03-28T05:08:26.099Z,995.59
2018-03-28T05:09:06.506Z,995.63
2018-03-28T05:09:46.885Z,995.62
2018-03-28T05:10:27.252Z,995.6
2018-03-28T05:11:07.641Z,995.55
2018-03-28T05:11:48.047Z,995.59
2018-03-28T05:12:28.498Z,995.57
2018-03-28T05:13:08.851Z,995.59
2018-03-28T05:13:49.253Z,995.62
2018-03-28T05:14:29.673Z,995.66
2018-03-28T05:15:10.065Z,995.63
2018-03-28T05:15:50.502Z,995.62
2018-03-28T05:16:30.826Z,995.68
2018-03-28T05:17:11.225Z,995.66
2018-03-28T05:17:51.658Z,995.66
2018-03-28T05:18:32.016Z,995.69
2018-03-28T05:19:12.415Z,995.66
2018-03-28T05:19:52.802Z,995.73
2018-03-28T05:20:33.259Z,995.66
2018-03-28T05:21:13.620Z,995.69
2018-03-28T05:21:54.018Z,995.73
2018-03-28T05:22:34.430Z,995.71
2018-03-28T05:23:14.857Z,995.7
2018-03-28T05:23:55.229Z,995.7
2018-03-28T05:24:35.631Z,995.67
2018-03-28T05:25:16.042Z,995.66
2018-03-28T05:25:56.481Z,995.68
2018-03-28T05:26:36.827Z,995.69
2018-03-28T05:27:17.208Z,995.7
2018-03-28T05:27:57.598Z,995.71
2018-03-28T05:28:38.019Z,995.73
2018-03-28T05:29:18.387Z,995.71
2018-03-28T05:29:58.873Z,995.68
2018-03-28T05:30:39.230Z,995.67
2018-03-28T05:31:19.654Z,995.72
2018-03-28T05:32:00.011Z,995.69
2018-03-28T05:32:40.433Z,995.69
2018-03-28T05:33:20.802Z,995.73
2018-03-28T05:34:01.293Z,995.68
2018-03-28T05:34:41.713Z,995.71
2018-03-28T05:35:22.147Z,995.72
2018-03-28T05:36:02.515Z,995.74
2018-03-28T05:36:42.953Z,995.74
2018-03-28T05:37:23.354Z,995.75
2018-03-28T05:38:03.693Z,995.73
2018-03-28T05:38:44.090Z,995.72
2018-03-28T05:39:24.515Z,995.73
2018-03-28T05:40:04.900Z,995.7
2018-03-28T05:40:45.288Z,995.72
2018-03-28T05:41:25.684Z,995.72
2018-03-28T05:42:06.091Z,995.73
2018-03-28T05:42:46.518Z,995.7
2018-03-28T05:43:26.906Z,995.72
2018-03-28T05:44:07.516Z,995.72
2018-03-28T05:44:47.815Z,995.73
2018-03-28T05:45:28.165Z,995.74
2018-03-28T05:46:08.819Z,995.74
2018-03-28T05:46:49.213Z,995.7
2018-03-28T05:47:29.624Z,995.7
2018-03-28T05:48:10.439Z,995.71
2018-03-28T05:48:50.442Z,995.68
2018-03-28T05:49:30.999Z,995.69
2018-03-28T05:50:11.380Z,995.7
2018-03-28T05:50:51.846Z,995.68
2018-03-28T05:51:32.513Z,995.67
2018-03-28T05:52:12.792Z,995.68
2018-03-28T05:52:54.240Z,995.65
2018-03-28T05:53:33.826Z,995.68
2018-03-28T05:54:14.261Z,995.63
2018-03-28T05:54:54.719Z,995.65
2018-03-28T05:55:35.637Z,995.64
2018-03-28T05:56:16.368Z,995.63
2018-03-28T05:56:57.050Z,995.63
2018-03-28T05:57:38.066Z,995.59
2018-03-28T05:58:18.583Z,995.64
2018-03-28T05:58:59.228Z,995.65
2018-03-28T05:59:39.675Z,995.65
2018-03-28T06:00:20.278Z,995.66
2018-03-28T06:01:01.378Z,995.63
2018-03-28T06:01:41.803Z,995.64
2018-03-28T06:02:22.624Z,995.61
2018-03-28T06:03:03.399Z,995.67
2018-03-28T06:03:43.826Z,995.62
2018-03-28T06:04:25.247Z,995.67
2018-03-28T06:05:04.705Z,995.67
2018-03-28T06:05:45.090Z,995.61
2018-03-28T06:06:25.547Z,995.68
2018-03-28T06:07:05.924Z,995.69
2018-03-28T06:07:46.342Z,995.66
2018-03-28T06:09:38.704Z,995.7
2018-03-28T06:10:19.142Z,995.68
2018-03-28T06:10:59.526Z,995.7
2018-03-28T06:11:40.029Z,995.72
2018-03-28T06:12:20.355Z,995.71
2018-03-28T06:13:00.764Z,995.67
2018-03-28T06:13:41.162Z,995.68
2018-03-28T06:14:21.589Z,995.66
2018-03-28T06:15:01.985Z,995.66
2018-03-28T06:15:42.343Z,995.66
2018-03-28T06:16:22.772Z,995.68
2018-03-28T06:17:03.190Z,995.69
2018-03-28T06:17:43.622Z,995.71
2018-03-28T06:18:24.068Z,995.72
2018-03-28T06:19:04.403Z,995.77
2018-03-28T06:19:44.807Z,995.74
2018-03-28T06:20:25.199Z,995.75
2018-03-28T06:21:05.605Z,995.76
2018-03-28T06:21:45.970Z,995.74
2018-03-28T06:22:26.399Z,995.7
2018-03-28T06:23:06.816Z,995.76
2018-03-28T06:23:47.249Z,995.74
2018-03-28T06:24:27.672Z,995.72
2018-03-28T06:25:08.075Z,995.75
2018-03-28T06:25:48.546Z,995.78
2018-03-28T06:26:28.988Z,995.75
2018-03-28T06:27:09.431Z,995.78
2018-03-28T06:27:49.825Z,995.75
2018-03-28T06:28:30.243Z,995.73
2018-03-28T06:29:10.683Z,995.77
2018-03-28T06:31:39.197Z,995.71
2018-03-28T06:32:19.551Z,995.69
2018-03-28T06:33:00.025Z,995.69
2018-03-28T06:33:40.378Z,995.66
2018-03-28T06:34:20.791Z,995.69
2018-03-28T06:35:01.193Z,995.67
2018-03-28T06:35:41.618Z,995.71
2018-03-28T06:36:22.167Z,995.68
2018-03-28T06:37:02.597Z,995.68
2018-03-28T06:37:43.183Z,995.67
2018-03-28T06:38:23.554Z,995.66
2018-03-28T06:39:03.981Z,995.63
2018-03-28T06:39:44.592Z,995.62
2018-03-28T06:40:25.060Z,995.62
2018-03-28T06:41:05.423Z,995.64
2018-03-28T06:41:45.977Z,995.66
2018-03-28T06:42:26.331Z,995.63
2018-03-28T06:43:06.793Z,995.61
2018-03-28T06:43:47.214Z,995.62
2018-03-28T06:44:27.712Z,995.59
2018-03-28T06:45:08.038Z,995.63
2018-03-28T06:45:48.478Z,995.61
2018-03-28T06:46:28.933Z,995.6
2018-03-28T06:47:09.330Z,995.6
2018-03-28T06:47:49.739Z,995.55
2018-03-28T06:48:30.106Z,995.6
2018-03-28T06:49:10.601Z,995.58
2018-03-28T06:49:50.953Z,995.54
2018-03-28T06:50:31.454Z,995.49
2018-03-28T06:51:12.048Z,995.52
2018-03-28T06:51:52.419Z,995.51
2018-03-28T06:52:32.857Z,995.48
2018-03-28T06:53:13.280Z,995.47
2018-03-28T06:53:53.721Z,995.47
2018-03-28T06:54:34.064Z,995.4
2018-03-28T06:55:14.555Z,995.42
2018-03-28T06:55:55.083Z,995.38
2018-03-28T06:56:35.774Z,995.4
2018-03-28T06:57:16.177Z,995.34
2018-03-28T06:57:56.644Z,995.37
2018-03-28T06:58:37.025Z,995.38
2018-03-28T06:59:17.479Z,995.4
2018-03-28T06:59:57.934Z,995.39
2018-03-28T07:00:38.374Z,995.42
2018-03-28T07:01:18.815Z,995.43
2018-03-28T07:01:59.202Z,995.4
2018-03-28T07:02:39.597Z,995.39
2018-03-28T07:03:20.071Z,995.42
2018-03-28T07:04:00.443Z,995.41
2018-03-28T07:04:40.888Z,995.42
2018-03-28T07:05:21.319Z,995.43
2018-03-28T07:06:01.716Z,995.41
2018-03-28T07:06:42.150Z,995.43
2018-03-28T07:07:22.625Z,995.45
2018-03-28T07:08:03.072Z,995.49
2018-03-28T07:08:43.576Z,995.47
2018-03-28T07:09:34.986Z,995.51
2018-03-28T07:12:30.693Z,995.53
2018-03-28T07:13:11.117Z,995.52
2018-03-28T07:13:52.692Z,995.51
2018-03-28T07:16:21.131Z,995.54
2018-03-28T07:17:01.539Z,995.55
2018-03-28T07:17:41.980Z,995.5
2018-03-28T07:18:22.374Z,995.54
2018-03-28T07:19:02.874Z,995.55
2018-03-28T07:19:43.342Z,995.52
2018-03-28T07:20:23.771Z,995.55
2018-03-28T07:21:05.264Z,995.54
2018-03-28T07:21:45.658Z,995.57
2018-03-28T07:22:26.053Z,995.53
2018-03-28T07:23:06.498Z,995.5
2018-03-28T07:23:46.897Z,995.53
2018-03-28T07:24:27.335Z,995.51
2018-03-28T07:25:07.739Z,995.5
2018-03-28T07:25:48.142Z,995.52
2018-03-28T07:26:28.593Z,995.52
2018-03-28T07:27:09.059Z,995.51
2018-03-28T07:27:49.440Z,995.54
2018-03-28T07:28:29.866Z,995.47
2018-03-28T07:29:10.320Z,995.49
2018-03-28T07:29:50.714Z,995.5
2018-03-28T07:30:31.145Z,995.51
2018-03-28T07:31:11.567Z,995.51
2018-03-28T07:31:52.078Z,995.51
2018-03-28T07:32:32.428Z,995.45
2018-03-28T07:33:12.802Z,995.49
2018-03-28T07:33:53.290Z,995.5
2018-03-28T07:34:33.691Z,995.47
2018-03-28T07:35:14.121Z,995.45
2018-03-28T07:35:54.586Z,995.47
2018-03-28T07:36:35.086Z,995.46
2018-03-28T07:37:15.472Z,995.46
2018-03-28T07:37:56.020Z,995.43
2018-03-28T07:38:36.453Z,995.41
2018-03-28T07:39:16.838Z,995.44
2018-03-28T07:39:57.232Z,995.41
2018-03-28T07:40:37.772Z,995.43
2018-03-28T07:41:18.191Z,995.4
2018-03-28T07:41:58.631Z,995.42
2018-03-28T07:42:39.059Z,995.39
2018-03-28T07:43:19.515Z,995.42
2018-03-28T07:43:59.955Z,995.38
2018-03-28T07:44:40.501Z,995.37
2018-03-28T07:45:20.964Z,995.43
2018-03-28T07:46:01.378Z,995.42
2018-03-28T07:46:41.752Z,995.42
2018-03-28T07:47:22.356Z,995.42
2018-03-28T07:48:02.886Z,995.39
2018-03-28T07:48:43.188Z,995.39
2018-03-28T07:49:24.560Z,995.38
2018-03-28T07:50:05.002Z,995.37
2018-03-28T07:50:45.382Z,995.37
2018-03-28T07:53:19.989Z,995.35
2018-03-28T07:54:01.596Z,995.38
2018-03-28T07:54:42.202Z,995.34
2018-03-28T07:55:22.965Z,995.32
2018-03-28T07:56:04.265Z,995.34
2018-03-28T07:56:44.252Z,995.33
2018-03-28T07:57:24.618Z,995.29
2018-03-28T07:58:06.845Z,995.28
2018-03-28T07:58:49.367Z,995.28
2018-03-28T08:00:13.305Z,995.29
2018-03-28T08:02:07.902Z,995.32
2018-03-28T08:02:48.243Z,995.27
2018-03-28T08:03:29.326Z,995.26
2018-03-28T08:04:09.489Z,995.28
2018-03-28T08:04:49.862Z,995.22
2018-03-28T08:05:30.339Z,995.23
2018-03-28T08:06:10.838Z,995.24
2018-03-28T08:06:51.582Z,995.23
2018-03-28T08:07:32.098Z,995.21
2018-03-28T08:08:13.264Z,995.29
2018-03-28T08:08:54.237Z,995.3
2018-03-28T08:09:34.742Z,995.28
2018-03-28T08:10:15.106Z,995.22
2018-03-28T08:10:55.543Z,995.24
2018-03-28T08:11:36.286Z,995.25
2018-03-28T08:12:16.660Z,995.25
2018-03-28T08:12:57.075Z,995.22
2018-03-28T08:13:37.514Z,995.18
2018-03-28T08:14:18.774Z,995.18
2018-03-28T08:14:59.056Z,995.18
2018-03-28T08:15:39.687Z,995.15
2018-03-28T08:16:21.044Z,995.18
2018-03-28T08:17:00.753Z,995.17
2018-03-28T08:17:41.386Z,995.14
2018-03-28T08:18:22.232Z,995.1
2018-03-28T08:19:02.692Z,995.15
2018-03-28T08:19:43.077Z,995.11
2018-03-28T08:20:24.625Z,995.09
2018-03-28T08:21:05.678Z,995.06
2018-03-28T08:21:46.368Z,995.05
2018-03-28T08:22:27.821Z,995.02
2018-03-28T08:23:07.607Z,995.02
2018-03-28T08:23:48.112Z,994.97
2018-03-28T08:24:28.870Z,994.96
2018-03-28T08:25:09.198Z,995.01
2018-03-28T08:25:49.902Z,995.03
2018-03-28T08:26:30.231Z,994.97
2018-03-28T08:27:12.869Z,995.07
2018-03-28T08:27:53.299Z,995.05
2018-03-28T08:28:33.881Z,995.11
2018-03-28T08:29:14.217Z,995.1
2018-03-28T08:29:54.657Z,995.11
2018-03-28T08:30:35.086Z,995.11
2018-03-28T08:31:15.648Z,995.13
2018-03-28T08:31:56.674Z,995.11
2018-03-28T08:32:37.612Z,995.13
2018-03-28T08:33:18.036Z,995.14
2018-03-28T08:33:58.444Z,995.11
2018-03-28T08:34:38.898Z,995.08
2018-03-28T08:35:19.336Z,995.09
2018-03-28T08:35:59.665Z,995.1
2018-03-28T08:36:40.839Z,995.01
2018-03-28T08:37:21.367Z,995.08
2018-03-28T08:38:02.293Z,995.06
2018-03-28T08:38:42.755Z,995.07
2018-03-28T08:39:23.306Z,995.07
2018-03-28T08:40:03.749Z,995.09
2018-03-28T08:40:44.253Z,995.06
2018-03-28T08:41:24.724Z,995.04
2018-03-28T08:42:05.382Z,995.03
2018-03-28T08:42:46.203Z,995.06
2018-03-28T08:43:26.621Z,995.04
2018-03-28T08:44:07.246Z,995.04
2018-03-28T08:44:47.830Z,995.02
2018-03-28T08:45:28.452Z,995.04
2018-03-28T08:46:10.491Z,995.05
2018-03-28T08:46:50.968Z,995.03
2018-03-28T08:47:31.424Z,994.99
2018-03-28T08:48:12.019Z,995.02
2018-03-28T08:48:52.395Z,995
2018-03-28T08:49:32.793Z,994.99
2018-03-28T08:50:13.339Z,994.99
2018-03-28T08:50:53.776Z,994.95
2018-03-28T08:51:40.478Z,994.96
2018-03-28T08:52:21.381Z,994.98
2018-03-28T08:53:02.725Z,994.99
2018-03-28T08:53:42.156Z,995.01
2018-03-28T08:54:22.536Z,995.02
2018-03-28T08:55:02.969Z,995.01
2018-03-28T08:55:43.388Z,995.01
2018-03-28T08:56:24.182Z,995.03
2018-03-28T08:57:04.716Z,995.01
2018-03-28T08:57:45.109Z,994.97
2018-03-28T08:58:25.654Z,994.94
2018-03-28T08:59:06.086Z,994.94
2018-03-28T08:59:49.648Z,994.97
2018-03-28T09:00:30.464Z,994.91
2018-03-28T09:01:10.843Z,994.95
2018-03-28T09:01:51.668Z,994.91
2018-03-28T09:02:32.023Z,994.97
2018-03-28T09:03:12.497Z,994.95
2018-03-28T09:03:52.822Z,994.94
2018-03-28T09:04:33.448Z,994.97
2018-03-28T09:05:13.858Z,994.95
2018-03-28T09:05:54.193Z,994.96
2018-03-28T09:06:34.623Z,994.93
2018-03-28T09:07:14.995Z,994.85
2018-03-28T09:07:55.471Z,994.96
2018-03-28T09:08:35.956Z,994.84
2018-03-28T09:09:17.138Z,994.88
2018-03-28T09:09:57.713Z,994.82
2018-03-28T09:10:37.909Z,994.81
2018-03-28T09:11:18.424Z,994.81
2018-03-28T09:11:59.134Z,994.79
2018-03-28T09:12:39.537Z,994.77
2018-03-28T09:13:19.938Z,994.74
2018-03-28T09:14:00.408Z,994.77
2018-03-28T09:14:41.877Z,994.75
2018-03-28T09:41:10.392Z,994.48
2018-03-28T09:41:50.739Z,994.46
2018-03-28T09:42:31.159Z,994.42
2018-03-28T09:43:11.754Z,994.38
2018-03-28T09:43:52.114Z,994.42
2018-03-28T09:44:32.548Z,994.39
2018-03-28T09:45:13.439Z,994.37
2018-03-28T09:45:53.603Z,994.41
2018-03-28T09:46:34.145Z,994.41
2018-03-28T09:47:14.519Z,994.45
2018-03-28T09:47:54.906Z,994.41
2018-03-28T09:48:35.327Z,994.45
2018-03-28T09:49:15.725Z,994.45
2018-03-28T09:49:56.163Z,994.48
2018-03-28T09:50:36.574Z,994.47
2018-03-28T09:51:17.031Z,994.47
2018-03-28T09:51:57.459Z,994.48
2018-03-28T09:52:37.814Z,994.47
2018-03-28T09:53:18.211Z,994.48
2018-03-28T09:53:59.391Z,994.47
2018-03-28T09:54:39.250Z,994.41
2018-03-28T09:55:19.655Z,994.44
2018-03-28T09:56:00.276Z,994.47
2018-03-28T09:56:40.635Z,994.45